< Cyclone 202225 2022 Season Cyclone 202228 >
Cyclone 202227 (Billy)
General InformationTrack Information on Google MapsDetailed Wind InformationList of All Images || ResourceGoogle EarthGE AnimationAtom FeedGeoJSON
Detalied Best Track (Time Zone = UTC)
Year Month Day Hour Lat. Long. Pressure (hPa) Wind (kt) Class Image Chart
2022 3 12 18 -11.0 107.0 1002 25 2 Image --
2022 3 13 00 -11.5 105.9 1004 25 2 Image --
2022 3 13 06 -12.5 105.4 1004 25 2 Image --
2022 3 13 12 -13.1 104.2 1002 30 2 Image --
2022 3 13 18 -13.9 103.0 1002 30 2 Image --
2022 3 14 00 -14.4 102.0 999 35 3 Image --
2022 3 14 06 -15.2 100.9 997 40 3 Image --
2022 3 14 12 -16.0 99.8 991 50 4 Image --
2022 3 14 18 -16.5 98.7 991 50 4 Image --
2022 3 15 00 -16.7 98.0 989 50 4 Image --
2022 3 15 06 -17.0 97.3 989 50 4 Image --
2022 3 15 12 -17.2 96.5 988 50 4 Image --
2022 3 15 18 -17.4 95.5 990 50 4 Image --
2022 3 16 00 -17.7 94.7 994 40 3 Image --
2022 3 16 06 -18.1 93.6 996 30 2 Image --
2022 3 16 12 -19.1 92.9 996 40 3 Image --
2022 3 16 18 -19.9 92.5 995 40 3 Image --
2022 3 17 00 -20.3 92.8 994 40 3 Image --
2022 3 17 06 -21.9 93.2 999 35 3 Image --
2022 3 17 12 -23.0 93.6 1000 35 3 Image --
2022 3 17 18 -23.6 93.8 1002 30 2 Image --
< Cyclone 202225 2022 Season Cyclone 202228 >

Help